Felda, FL (33930)

11:18 AM EST on December 27, 2014 (GMT -0500)
Alva Grove | Change Station
CLOSE
Current Station
Personal Weather Station
Location: LaBelle, FL
Elevation: 36 ft
Nearby Weather Stations

Elev 36 ft 26.75 °N, 81.57 °W | Updated 1 minute ago

Overcast
Overcast
78.2 °F
Feels Like 81 °F
N
3.0
Wind Variable Wind from SE
Gusts 14.0 mph

Today
High -- | Low -- °F
--% Chance of Precip.
Yesterday
High -- | Low -- °F
Precip. -- in
7:13 AM 5:41 PM
Waxing Crescent, 38% visible
Pressure 30.24 in
Visibility 10.0 miles
Clouds Mostly Cloudy 700 ft
Heat Index 81 °F
Dew Point 72 °F
Humidity 80%
Rainfall 0.00 in
Snow Depth Not available.
UV 3 out of 12
Pollen 4.90 out of 12
Air Quality Not available.
Flu Activity Not available.
METAR KRSW 271553Z VRB04KT 10SM BKN007 22/20 A3025 RMK AO2 SLP240 T02220200

More Conditions Fewer Conditions

Pressure 30.24 in
Visibility 10.0 miles
Clouds Mostly Cloudy 700 ft
Heat Index 81 °F
Dew Point 72 °F
Humidity 80%
Rainfall 0.00 in
Snow Depth Not available.
UV 3 out of 12
Pollen 4.90 out of 12
Air Quality Not available.
Flu Activity Not available.
METAR KRSW 271553Z VRB04KT 10SM BKN007 22/20 A3025 RMK AO2 SLP240 T02220200

More Conditions Fewer Conditions

10-Day Weather Forecast

Almanac

Astronomy

Dec. 27, 2014 Rise Set
Actual Time
Civil Twilight
Nautical Twilight
Astronomical Twilight
Moon
Length of Visible Light
Length of Day
Tomorrow will be .
, % of the Moon is Illuminated

Today's Extremes

State Highs State Lows

Community

WunderPhotos

Upload Photos

1,780,943 photos uploaded!

WunderBlogs® & News

Nearby

Air Quality

  Air Quality AQ Index Pollutant
Not available.

Snow Depth

Station Depth Elevation

Earthquake Activity

City Distance Mag. Time & Date
Minimum magnitude displayed is 2.5.

Coastal Water Temperatures

Place Temperature

Nearby Weather Stations